Weather at Alghero-Fertilia Airport

Public forecast

Using degrees Celsius for public forecast. Weather courtesy of forecast.io.

Current aviation weather report (METAR) for Alghero-Fertilia Airport

Report is more than 6 hours old.

Retrieved 2022/09/17 18:50 UTC (8 days ago):

LIEA 171850Z 20002KT CAVOK 19/13 Q1011

Aviation forecast (TAF) for Alghero-Fertilia Airport

Forecast is more than 12 hours old.

Retrieved 2022/09/17 18:00 UTC (8 days ago):

TAF LIEA 171700Z 1718/1818 32012KT 9999 SCT025 BECMG 1718/1720 VRB05KT BECMG 1809/1811 21010KT